Terminal Aerodrome Forecast
Issued by NWS

Home | Current Version | Previous Version | Text Only | Print | Product List | Glossary On
Versions: 1 2 3 4 5 6 7 8 9 10 11 12 13 14 15 16 17 18
000
FTUS46 KSEW 281807 RRA
TAFHQM
TAF
KHQM 281807Z 2818/2918 19003KT P6SM BKN015 OVC050
     FM282000 25008KT P6SM BKN030 OVC060
     FM290100 VRB03KT P6SM BKN035 OVC070
     FM290800 09004KT 5SM -RA BR OVC015
     FM291500 15010KT 5SM -RA BR OVC020=

USA.gov is the U.S. government's official web portal to all federal, state and local government web resources and services.